Time;durP1;ratioP1;P1;durP2;ratioP2;P2;SDS_P1;SDS_P2;PMS_P1;PMS_P2;Temp;Humidity;BMP_temperature;BMP_pressure;BME280_temperature;BME280_humidity;BME280_pressure;Samples;Min_cycle;Max_cycle;Signal;HPM_P1;HPM_P2
2024/01/31 00:01:24;;;;;;;;;46.00;38.00;;;;;6.70;100.00;100292.19;6161535;28;96650;-56
2024/01/31 00:04:27;;;;;;;;;48.00;40.00;;;;;6.67;100.00;100283.66;6165382;28;96292;-58
2024/01/31 00:07:30;;;;;;;;;48.40;39.00;;;;;6.65;100.00;100288.31;6163641;28;96579;-57
2024/01/31 00:10:33;;;;;;;;;51.20;42.60;;;;;6.57;100.00;100283.78;6146703;28;98371;-57
2024/01/31 00:13:36;;;;;;;;;49.60;40.60;;;;;6.54;100.00;100278.75;6166432;28;96302;-57
2024/01/31 00:16:42;;;;;;;;;51.60;41.00;;;;;6.52;100.00;100278.06;6161437;28;96864;-58
2024/01/31 00:19:45;;;;;;;;;53.00;41.00;;;;;6.53;100.00;100282.44;6152604;28;97033;-57
2024/01/31 00:22:48;;;;;;;;;49.80;38.80;;;;;6.51;100.00;100284.44;6156895;28;96357;-57
2024/01/31 00:25:52;;;;;;;;;48.20;39.00;;;;;6.50;100.00;100294.31;6151432;28;96379;-57
2024/01/31 00:28:55;;;;;;;;;52.40;41.00;;;;;6.48;100.00;100284.75;6156647;28;96501;-57
2024/01/31 00:32:00;;;;;;;;;52.00;43.60;;;;;6.38;100.00;100279.53;6161580;28;97030;-57
2024/01/31 00:35:04;;;;;;;;;50.60;40.00;;;;;6.42;100.00;100290.75;6145740;28;96332;-57
2024/01/31 00:38:07;;;;;;;;;52.00;42.00;;;;;6.41;100.00;100283.72;6160729;28;97051;-57
2024/01/31 00:41:10;;;;;;;;;48.40;39.40;;;;;6.42;100.00;100282.72;6162897;28;96974;-57
2024/01/31 00:44:13;;;;;;;;;48.20;39.60;;;;;6.42;100.00;100277.34;6163104;28;96208;-57
2024/01/31 00:47:18;;;;;;;;;51.20;40.00;;;;;6.40;100.00;100282.88;6163408;28;97500;-57
2024/01/31 00:50:21;;;;;;;;;49.00;41.00;;;;;6.37;100.00;100282.34;6163828;28;96400;-57
2024/01/31 00:53:24;;;;;;;;;46.75;39.00;;;;;6.35;100.00;100284.38;6147126;28;96373;-58
2024/01/31 00:56:27;;;;;;;;;47.75;38.75;;;;;6.35;100.00;100292.41;6145416;28;96362;-57
2024/01/31 00:59:30;;;;;;;;;50.00;39.80;;;;;6.34;100.00;100283.53;6168456;28;96913;-57
2024/01/31 01:02:36;;;;;;;;;43.20;35.60;;;;;6.36;100.00;100280.69;6183807;28;96436;-57
2024/01/31 01:05:39;;;;;;;;;46.60;38.20;;;;;6.34;100.00;100286.22;6191895;28;96685;-57
2024/01/31 01:08:42;;;;;;;;;45.75;37.75;;;;;6.35;100.00;100281.69;6159168;28;97298;-57
2024/01/31 01:11:45;;;;;;;;;41.00;34.00;;;;;6.33;100.00;100275.66;6201754;28;96696;-57
2024/01/31 01:14:48;;;;;;;;;46.25;38.00;;;;;6.32;100.00;100282.84;6201094;28;96414;-57
2024/01/31 01:17:53;;;;;;;;;42.00;35.60;;;;;6.31;100.00;100285.69;6202045;28;97229;-57
2024/01/31 01:20:56;;;;;;;;;42.80;35.80;;;;;6.31;100.00;100283.84;6201815;28;96913;-57
2024/01/31 01:23:59;;;;;;;;;44.75;36.00;;;;;6.30;100.00;100286.69;6198611;28;96401;-57
2024/01/31 01:27:02;;;;;;;;;42.75;34.75;;;;;6.29;100.00;100293.03;6161639;28;98663;-57
2024/01/31 01:30:07;;;;;;;;;44.00;35.00;;;;;6.29;100.00;100285.00;6195198;28;96445;-56
2024/01/31 01:33:11;;;;;;;;;44.50;35.50;;;;;6.30;100.00;100284.03;6195131;28;96564;-57
2024/01/31 01:36:15;;;;;;;;;38.60;33.60;;;;;6.30;100.00;100282.19;6194975;28;96800;-57
2024/01/31 01:39:19;;;;;;;;;43.50;36.00;;;;;6.29;100.00;100276.97;6194837;28;96268;-57
2024/01/31 01:42:22;;;;;;;;;41.00;35.00;;;;;6.28;100.00;100280.66;6194125;28;96913;-57
2024/01/31 01:45:26;;;;;;;;;42.40;35.00;;;;;6.28;100.00;100283.31;6176650;28;96371;-57
2024/01/31 01:48:31;;;;;;;;;40.60;34.60;;;;;6.30;100.00;100278.66;6194880;28;96782;-56
2024/01/31 01:51:34;;;;;;;;;40.60;34.60;;;;;6.31;100.00;100272.28;6194812;28;96316;-56
2024/01/31 01:54:38;;;;;;;;;41.40;33.20;;;;;6.26;100.00;100272.75;6194649;28;96497;-57
2024/01/31 01:57:41;;;;;;;;;38.00;32.00;;;;;6.24;100.00;100269.44;6194624;28;96335;-57
2024/01/31 02:00:47;;;;;;;;;36.00;32.00;;;;;6.21;100.00;100271.56;6195062;28;96948;-55
2024/01/31 02:07:28;;;;;;;;;36.60;32.00;;;;;6.19;100.00;100265.53;6174731;28;96385;-55
2024/01/31 02:10:31;;;;;;;;;45.20;36.00;;;;;6.07;100.00;100267.66;6180409;28;96938;-56
2024/01/31 02:13:34;;;;;;;;;38.50;32.00;;;;;6.11;100.00;100276.22;6200783;28;96346;-55
2024/01/31 02:16:38;;;;;;;;;39.40;32.40;;;;;6.08;100.00;100264.81;6204265;28;96707;-55
2024/01/31 02:19:41;;;;;;;;;39.60;32.60;;;;;6.09;100.00;100266.50;6226092;28;96485;-54
2024/01/31 02:22:47;;;;;;;;;37.60;32.60;;;;;6.13;100.00;100260.81;6217109;28;97107;-55
2024/01/31 02:25:51;;;;;;;;;39.80;32.80;;;;;6.10;100.00;100270.03;6221445;28;97673;-53
2024/01/31 02:28:54;;;;;;;;;39.60;33.00;;;;;6.21;100.00;100258.16;6204474;28;96343;-53
2024/01/31 02:31:57;;;;;;;;;37.20;32.00;;;;;6.10;100.00;100248.59;6195893;28;96411;-54
2024/01/31 02:35:00;;;;;;;;;37.00;33.00;;;;;6.21;100.00;100255.50;6195304;28;96235;-54
2024/01/31 02:38:05;;;;;;;;;37.33;33.00;;;;;6.19;100.00;100258.34;6183916;28;96376;-54
2024/01/31 02:41:08;;;;;;;;;42.60;36.00;;;;;6.19;100.00;100253.00;6195944;28;96405;-54
2024/01/31 02:44:11;;;;;;;;;34.60;31.00;;;;;6.21;100.00;100253.66;6196519;28;96470;-54
2024/01/31 02:47:14;;;;;;;;;42.00;34.25;;;;;6.22;100.00;100246.47;6195808;28;96326;-54
2024/01/31 02:50:18;;;;;;;;;41.20;34.00;;;;;6.21;100.00;100250.13;6195257;28;96287;-54
2024/01/31 02:53:22;;;;;;;;;37.00;32.00;;;;;6.16;100.00;100253.28;6194921;28;96209;-54
2024/01/31 02:56:25;;;;;;;;;36.80;32.80;;;;;6.15;100.00;100246.28;6195065;28;96253;-54
2024/01/31 02:59:28;;;;;;;;;40.20;34.60;;;;;6.10;100.00;100243.25;6193925;28;96959;-54
2024/01/31 03:02:32;;;;;;;;;38.67;33.00;;;;;5.96;100.00;100246.53;6192065;28;96524;-54
2024/01/31 03:05:35;;;;;;;;;38.00;33.00;;;;;5.74;100.00;100222.94;6181921;28;96270;-53
2024/01/31 03:08:39;;;;;;;;;35.60;30.00;;;;;5.94;100.00;100245.84;6195082;28;97476;-53
2024/01/31 03:11:42;;;;;;;;;38.50;32.25;;;;;5.81;100.00;100248.91;6194758;28;96425;-54
2024/01/31 03:14:45;;;;;;;;;44.00;34.75;;;;;5.70;100.00;100246.50;6194996;28;96312;-53
2024/01/31 03:17:49;;;;;;;;;42.20;34.60;;;;;5.68;100.00;100249.31;6171437;28;96809;-57
2024/01/31 03:20:54;;;;;;;;;42.50;35.00;;;;;5.62;100.00;100249.09;6189427;28;96245;-57
2024/01/31 03:23:59;;;;;;;;;43.00;35.00;;;;;5.52;100.00;100253.75;6171877;28;98370;-57
2024/01/31 03:27:02;;;;;;;;;43.25;35.50;;;;;5.35;100.00;100247.41;6190140;28;96466;-57
2024/01/31 03:30:08;;;;;;;;;40.80;33.00;;;;;5.22;100.00;100242.47;6171126;28;99338;-57
2024/01/31 03:33:12;;;;;;;;;40.40;34.20;;;;;5.24;100.00;100247.66;6166004;28;96590;-58
2024/01/31 03:36:15;;;;;;;;;38.00;33.00;;;;;5.17;100.00;100247.44;6189033;28;96372;-58
2024/01/31 03:39:20;;;;;;;;;37.00;32.00;;;;;5.23;100.00;100243.28;6189197;28;96782;-58
2024/01/31 03:42:23;;;;;;;;;33.20;30.40;;;;;5.33;100.00;100245.88;6188695;28;96525;-58
2024/01/31 03:45:27;;;;;;;;;43.25;33.00;;;;;5.41;100.00;100252.16;6191815;28;96443;-58
2024/01/31 03:48:30;;;;;;;;;33.60;30.00;;;;;5.44;100.00;100242.97;6170231;28;96855;-58
2024/01/31 03:51:34;;;;;;;;;36.00;30.25;;;;;5.45;100.00;100250.00;6188128;28;97691;-58
2024/01/31 03:54:38;;;;;;;;;39.25;33.50;;;;;5.33;100.00;100241.38;6188637;28;96313;-58
2024/01/31 03:57:41;;;;;;;;;43.40;34.00;;;;;5.14;100.00;100249.56;6188312;28;96527;-58
2024/01/31 04:00:44;;;;;;;;;39.60;35.00;;;;;5.02;100.00;100224.06;6197296;28;97646;-58
2024/01/31 04:03:47;;;;;;;;;38.20;33.20;;;;;5.15;100.00;100246.75;6179577;28;96467;-58
2024/01/31 04:06:50;;;;;;;;;40.20;32.00;;;;;5.21;100.00;100238.13;6148787;28;96986;-58
2024/01/31 04:09:55;;;;;;;;;34.00;31.60;;;;;5.26;100.00;100243.00;6170872;28;97521;-58
2024/01/31 04:12:58;;;;;;;;;38.20;32.00;;;;;5.32;100.00;100241.53;6169383;28;96596;-58
2024/01/31 04:16:01;;;;;;;;;37.80;33.00;;;;;5.31;100.00;100254.06;6177633;28;96589;-58
2024/01/31 04:19:05;;;;;;;;;39.40;32.00;;;;;5.37;100.00;100258.81;6202820;28;96384;-58
2024/01/31 04:22:08;;;;;;;;;39.20;33.00;;;;;5.42;100.00;100253.00;6198082;28;96406;-59
2024/01/31 04:25:13;;;;;;;;;42.60;32.80;;;;;5.45;100.00;100261.53;6197702;28;96385;-57
2024/01/31 04:36:18;;;;;;;;;38.80;32.20;;;;;5.46;100.00;100255.19;722607;22;98231;-93
2024/01/31 04:39:22;;;;;;;;;47.00;38.00;;;;;5.09;100.00;100198.41;6195026;28;97123;-93
2024/01/31 04:42:27;;;;;;;;;42.00;35.00;;;;;4.86;100.00;100147.28;6197579;28;97584;-93
2024/01/31 04:52:50;;;;;;;;;40.60;34.00;;;;;5.41;100.00;100257.50;6215018;28;97269;-93
2024/01/31 04:55:54;;;;;;;;;44.60;35.00;;;;;5.33;100.00;100230.66;6208949;27;96428;-93
2024/01/31 04:58:59;;;;;;;;;41.20;33.80;;;;;5.21;100.00;100215.88;6210106;27;96679;-93
2024/01/31 05:02:10;;;;;;;;;43.40;35.00;;;;;5.50;100.00;100255.72;6248417;22;99175;-92
2024/01/31 05:05:14;;;;;;;;;38.00;33.00;;;;;4.58;100.00;100094.94;6134640;28;96998;-93
2024/01/31 05:08:18;;;;;;;;;39.40;33.40;;;;;5.54;100.00;100257.06;6134914;28;96367;-93
2024/01/31 05:11:21;;;;;;;;;38.00;32.00;;;;;5.61;100.00;100272.38;6129529;28;96661;-92
2024/01/31 05:14:26;;;;;;;;;41.25;33.00;;;;;5.21;100.00;100246.13;6121800;28;96435;-92
2024/01/31 05:17:29;;;;;;;;;36.00;30.20;;;;;4.42;100.00;100117.00;6107269;28;96490;-92
2024/01/31 05:20:32;;;;;;;;;34.80;30.20;;;;;4.59;100.00;100107.31;6123601;28;96682;-92
2024/01/31 05:23:35;;;;;;;;;36.00;30.00;;;;;5.30;100.00;100270.25;6117647;28;96371;-92
2024/01/31 05:26:39;;;;;;;;;35.50;30.00;;;;;4.97;100.00;100216.53;6109678;28;97079;-89
2024/01/31 05:29:43;;;;;;;;;37.00;32.00;;;;;5.54;100.00;100275.81;6106394;28;96688;-89
2024/01/31 05:32:47;;;;;;;;;39.00;32.50;;;;;5.54;100.00;100273.97;6103382;28;97844;-89
2024/01/31 05:35:50;;;;;;;;;26.80;24.40;;;;;5.50;100.00;100283.31;6102964;28;96310;-88
2024/01/31 05:38:53;;;;;;;;;35.60;32.00;;;;;5.12;100.00;100220.34;6121357;28;96795;-89
2024/01/31 05:41:56;;;;;;;;;33.00;29.00;;;;;4.68;100.00;100168.66;6115900;28;96827;-90
2024/01/31 05:45:01;;;;;;;;;24.00;23.40;;;;;4.28;100.00;100097.00;6125511;28;96621;-89
2024/01/31 05:48:06;;;;;;;;;41.60;33.40;;;;;5.33;100.00;100243.19;6106613;28;96924;-89
2024/01/31 05:51:09;;;;;;;;;41.00;34.00;;;;;5.45;100.00;100268.72;6102271;28;96484;-88
2024/01/31 05:54:13;;;;;;;;;39.80;33.00;;;;;4.69;100.00;100140.13;6099487;28;99725;-88
2024/01/31 05:57:16;;;;;;;;;39.25;32.00;;;;;4.74;100.00;100157.34;6106237;28;96472;-88
2024/01/31 06:00:21;;;;;;;;;41.80;34.60;;;;;4.13;100.00;100045.13;6108595;28;96470;-88
2024/01/31 06:03:28;;;;;;;;;39.00;32.60;;;;;5.37;100.00;100234.75;6133614;28;96417;-89
2024/01/31 06:06:31;;;;;;;;;39.80;34.00;;;;;5.01;100.00;100212.53;6126084;28;96841;-88
2024/01/31 06:09:34;;;;;;;;;39.40;34.40;;;;;5.60;100.00;100269.84;6111765;28;99635;-89
2024/01/31 06:12:38;;;;;;;;;42.00;35.00;;;;;5.76;100.00;100259.25;6133292;28;97096;-87
2024/01/31 06:15:42;;;;;;;;;46.40;35.60;;;;;5.93;100.00;100290.50;6108475;28;97219;-88
2024/01/31 06:18:46;;;;;;;;;46.00;36.50;;;;;6.08;100.00;100304.13;6113173;28;96431;-88
2024/01/31 06:21:49;;;;;;;;;44.60;37.00;;;;;5.05;100.00;100093.63;6106318;28;97106;-87
2024/01/31 06:24:52;;;;;;;;;45.25;37.00;;;;;5.13;100.00;100099.00;6113186;28;96641;-89
2024/01/31 06:27:56;;;;;;;;;41.00;34.00;;;;;6.32;100.00;100288.19;6114028;28;96479;-87
2024/01/31 06:31:13;;;;;;;;;40.60;34.40;;;;;5.87;100.00;100178.72;6132233;28;98789;-88
2024/01/31 06:34:17;;;;;;;;;45.00;35.00;;;;;5.42;100.00;100104.06;6123756;28;96325;-88
2024/01/31 06:37:20;;;;;;;;;43.50;36.00;;;;;6.60;100.00;100267.38;6124905;28;96948;-89
2024/01/31 06:40:24;;;;;;;;;36.40;29.80;;;;;6.67;100.00;100273.78;6103993;28;97209;-89
2024/01/31 06:43:27;;;;;;;;;32.00;29.00;;;;;5.58;100.00;100085.38;6131933;28;96791;-88
2024/01/31 06:46:32;;;;;;;;;40.00;34.00;;;;;6.61;100.00;100247.63;6122117;28;96374;-85
2024/01/31 06:49:35;;;;;;;;;44.00;36.00;;;;;6.84;100.00;100302.28;6108142;28;99540;-85
2024/01/31 06:52:39;;;;;;;;;43.20;35.00;;;;;5.93;100.00;100159.34;6123558;28;99306;-85
2024/01/31 06:55:42;;;;;;;;;41.80;35.00;;;;;6.71;100.00;100276.97;6115495;28;99742;-86
2024/01/31 06:58:46;;;;;;;;;42.67;35.00;;;;;5.67;100.00;100103.16;6146723;28;96685;-85
2024/01/31 07:01:51;;;;;;;;;43.00;35.00;;;;;5.42;100.00;100080.00;6149078;28;96377;-85
2024/01/31 07:04:54;;;;;;;;;31.40;29.00;;;;;6.67;100.00;100281.81;6149174;28;97773;-85
2024/01/31 07:07:58;;;;;;;;;38.67;33.00;;;;;6.49;100.00;100265.84;6133129;28;98863;-86
2024/01/31 07:11:01;;;;;;;;;40.50;34.50;;;;;6.76;100.00;100329.09;6109449;28;97207;-85
2024/01/31 07:14:04;;;;;;;;;42.50;35.25;;;;;6.53;100.00;100261.84;6161144;28;96342;-85
2024/01/31 07:17:09;;;;;;;;;42.60;35.00;;;;;6.74;100.00;100280.19;6133054;28;97255;-85
2024/01/31 07:20:13;;;;;;;;;39.00;33.00;;;;;6.84;100.00;100310.34;6112333;28;98556;-85
2024/01/31 07:23:17;;;;;;;;;42.80;34.00;;;;;7.21;100.00;100309.09;6124644;28;98624;-84
2024/01/31 07:26:24;;;;;;;;;45.00;36.40;;;;;6.50;100.00;100247.91;6108329;28;97705;-85
2024/01/31 07:29:27;;;;;;;;;46.20;37.60;;;;;7.07;100.00;100310.56;6111236;28;97962;-85
2024/01/31 07:32:32;;;;;;;;;46.00;38.00;;;;;6.94;100.00;100272.66;6124394;28;96723;-85
2024/01/31 07:35:37;;;;;;;;;47.00;38.00;;;;;7.00;100.00;100245.19;6108709;28;99826;-85
2024/01/31 07:38:43;;;;;;;;;45.00;35.40;;;;;7.45;100.00;100325.22;6108456;28;99468;-85
2024/01/31 07:41:46;;;;;;;;;47.00;39.00;;;;;7.56;100.00;100326.72;6108824;28;97321;-85
2024/01/31 07:44:50;;;;;;;;;41.00;35.00;;;;;7.33;100.00;100300.53;6128299;28;96345;-85
2024/01/31 07:47:56;;;;;;;;;45.00;37.00;;;;;7.36;100.00;100286.81;6135299;28;97669;-91
2024/01/31 07:51:02;;;;;;;;;49.00;39.33;;;;;7.69;100.00;100335.94;6136428;28;96272;-92
2024/01/31 07:54:05;;;;;;;;;47.67;39.33;;;;;7.82;100.00;100324.69;6135308;28;97580;-91
2024/01/31 07:57:09;;;;;;;;;47.40;38.20;;;;;7.10;100.00;100194.06;6133429;28;96359;-90
2024/01/31 08:00:13;;;;;;;;;49.00;38.00;;;;;7.79;100.00;100303.56;6129936;28;97010;-91
2024/01/31 08:03:21;;;;;;;;;50.75;41.00;;;;;7.89;100.00;100336.44;6127345;28;96828;-90
2024/01/31 08:06:24;;;;;;;;;46.20;38.00;;;;;7.55;100.00;100312.47;6113283;28;96358;-91
2024/01/31 08:09:28;;;;;;;;;46.75;38.00;;;;;7.62;100.00;100321.53;6114100;28;96966;-91
2024/01/31 08:12:32;;;;;;;;;45.00;37.40;;;;;6.87;100.00;100215.34;6114990;28;96905;-91
2024/01/31 08:15:54;;;;;;;;;44.60;36.00;;;;;7.22;100.00;100282.09;6131098;28;96141;-91
2024/01/31 08:19:17;;;;;;;;;45.00;37.50;;;;;7.55;100.00;100328.56;6151439;28;96202;-90
2024/01/31 08:22:20;;;;;;;;;45.00;36.00;;;;;7.54;100.00;100336.78;6136573;28;96877;-91
2024/01/31 08:25:24;;;;;;;;;47.00;38.20;;;;;6.72;100.00;100200.91;6138017;28;96716;-91
2024/01/31 08:28:27;;;;;;;;;46.60;39.00;;;;;7.05;100.00;100279.53;6136035;28;96588;-90
2024/01/31 08:31:31;;;;;;;;;47.00;38.00;;;;;6.23;100.00;100165.13;6133933;28;98116;-91
2024/01/31 08:34:36;;;;;;;;;46.60;38.00;;;;;7.23;100.00;100301.72;6135332;28;97255;-90
2024/01/31 08:37:39;;;;;;;;;45.40;38.00;;;;;7.55;100.00;100339.31;6136467;28;96426;-90
2024/01/31 08:40:43;;;;;;;;;49.00;39.20;;;;;7.34;100.00;100318.31;6135421;28;99682;-90
2024/01/31 08:43:47;;;;;;;;;50.50;41.00;;;;;7.42;100.00;100346.19;6135255;28;96761;-90
2024/01/31 08:46:50;;;;;;;;;52.00;41.00;;;;;7.45;100.00;100343.16;6131985;28;96774;-91
2024/01/31 08:50:16;;;;;;;;;47.00;38.00;;;;;7.43;100.00;100343.31;6108479;28;96982;-90
2024/01/31 08:53:20;;;;;;;;;48.80;39.00;;;;;7.46;100.00;100351.03;6109247;28;96997;-90
2024/01/31 08:56:23;;;;;;;;;49.50;41.00;;;;;7.23;100.00;100324.00;6108255;28;96646;-90
2024/01/31 08:59:26;;;;;;;;;49.60;39.40;;;;;7.05;100.00;100301.84;6109842;28;96562;-90
2024/01/31 09:02:30;;;;;;;;;49.80;39.00;;;;;7.52;100.00;100357.59;6107521;28;99455;-90
2024/01/31 09:05:34;;;;;;;;;47.20;38.00;;;;;6.69;100.00;100206.63;6118824;28;96929;-90
2024/01/31 09:08:38;;;;;;;;;47.80;39.40;;;;;6.65;100.00;100211.44;6108287;28;97481;-90
2024/01/31 09:11:41;;;;;;;;;50.00;40.00;;;;;6.67;100.00;100188.00;6107871;28;96930;-90
2024/01/31 09:14:44;;;;;;;;;47.25;39.00;;;;;7.59;100.00;100324.53;6107741;28;96332;-90
2024/01/31 09:17:47;;;;;;;;;46.60;38.00;;;;;6.68;100.00;100168.25;6109364;28;96386;-90
2024/01/31 09:20:52;;;;;;;;;47.00;39.00;;;;;6.47;100.00;100106.25;6108555;28;96293;-90
2024/01/31 09:23:56;;;;;;;;;44.40;35.40;;;;;8.12;100.00;100363.44;6108520;28;96373;-90
2024/01/31 09:26:59;;;;;;;;;45.67;38.00;;;;;8.14;100.00;100356.06;6112966;28;96437;-90
2024/01/31 09:30:03;;;;;;;;;48.60;39.00;;;;;7.93;100.00;100334.25;6109082;28;96406;-89
2024/01/31 09:33:06;;;;;;;;;46.25;38.25;;;;;7.78;100.00;100289.28;6112951;28;96435;-90
2024/01/31 09:36:11;;;;;;;;;47.20;38.60;;;;;8.05;100.00;100309.56;6112700;28;96892;-90
2024/01/31 09:39:15;;;;;;;;;47.00;39.00;;;;;6.58;100.00;100056.88;6112782;28;98106;-90
2024/01/31 09:42:18;;;;;;;;;49.50;40.50;;;;;8.34;100.00;100335.91;6112638;28;97023;-90
2024/01/31 09:45:22;;;;;;;;;46.60;38.00;;;;;8.12;100.00;100296.28;6113144;28;99380;-90
2024/01/31 09:48:27;;;;;;;;;46.00;38.00;;;;;7.15;100.00;100156.88;6113461;28;98484;-90
2024/01/31 09:51:33;;;;;;;;;47.75;39.00;;;;;6.74;100.00;100062.22;6113588;28;97202;-90
2024/01/31 09:54:36;;;;;;;;;48.60;39.60;;;;;8.07;100.00;100298.63;6114855;28;97145;-90
2024/01/31 09:57:40;;;;;;;;;48.40;38.40;;;;;7.51;100.00;100152.78;6114533;28;96764;-90
2024/01/31 10:00:44;;;;;;;;;47.00;37.00;;;;;8.75;100.00;100339.28;6114454;28;98412;-90
2024/01/31 10:03:48;;;;;;;;;45.25;37.75;;;;;8.78;100.00;100324.66;6126152;28;96883;-90
2024/01/31 10:06:53;;;;;;;;;46.00;36.80;;;;;7.63;100.00;100140.66;6139647;28;96530;-90
2024/01/31 10:09:57;;;;;;;;;49.00;38.25;;;;;8.76;100.00;100324.81;6153412;23;98756;-58
2024/01/31 10:13:00;;;;;;;;;47.00;38.20;;;;;8.84;100.00;100322.09;6164850;28;96408;-58
2024/01/31 10:16:04;;;;;;;;;43.40;36.00;;;;;8.89;100.00;100322.44;6166457;28;96974;-59
2024/01/31 10:19:08;;;;;;;;;46.00;37.00;;;;;8.89;100.00;100317.03;6188254;28;96397;-58
2024/01/31 10:22:12;;;;;;;;;47.00;38.80;;;;;8.88;100.00;100309.13;6185544;28;96324;-59
2024/01/31 10:25:18;;;;;;;;;41.60;35.00;;;;;8.69;100.00;100291.59;6187233;28;96348;-60
2024/01/31 10:28:22;;;;;;;;;47.00;38.00;;;;;8.80;100.00;100306.47;6186654;28;96359;-60
2024/01/31 10:31:26;;;;;;;;;47.00;36.00;;;;;8.70;100.00;100301.31;6187003;28;96360;-60
2024/01/31 10:34:30;;;;;;;;;49.75;39.00;;;;;8.72;100.00;100295.78;6186206;28;96384;-60
2024/01/31 10:37:51;;;;;;;;;47.60;38.80;;;;;8.83;100.00;100303.44;6187085;28;96578;-60
2024/01/31 10:41:01;;;;;;;;;47.60;39.00;;;;;8.97;100.00;100300.00;6187594;28;96875;-61
2024/01/31 10:44:08;;;;;;;;;48.50;39.75;;;;;8.95;100.00;100300.19;6187306;28;96421;-60
2024/01/31 10:47:11;;;;;;;;;47.40;38.00;;;;;9.01;100.00;100287.88;6187910;28;97200;-60
2024/01/31 10:50:16;;;;;;;;;49.00;39.00;;;;;9.07;100.00;100292.56;6186816;28;96300;-60
2024/01/31 10:53:22;;;;;;;;;48.25;38.25;;;;;9.07;100.00;100285.31;6187394;28;96385;-60
2024/01/31 10:56:26;;;;;;;;;45.80;37.40;;;;;9.13;100.00;100279.22;6186344;28;96497;-60
2024/01/31 10:59:35;;;;;;;;;47.00;38.75;;;;;9.23;100.00;100280.84;6169681;28;99049;-60
2024/01/31 11:02:39;;;;;;;;;50.00;38.60;;;;;9.27;100.00;100274.09;6187559;28;96534;-60
2024/01/31 11:05:43;;;;;;;;;47.00;40.00;;;;;9.27;100.00;100274.09;6186898;28;96373;-59
2024/01/31 11:08:48;;;;;;;;;47.00;38.00;;;;;9.32;100.00;100277.91;6167503;28;98311;-59
2024/01/31 11:12:02;;;;;;;;;49.00;40.00;;;;;9.34;100.00;100278.56;6168550;28;96427;-59
2024/01/31 11:15:06;;;;;;;;;47.40;39.00;;;;;9.37;100.00;100280.91;6183284;28;96264;-60
2024/01/31 11:18:11;;;;;;;;;52.00;40.00;;;;;9.53;100.00;100286.13;6182823;28;96743;-61
2024/01/31 11:21:14;;;;;;;;;47.20;38.00;;;;;9.68;100.00;100280.78;6183609;28;96461;-59
2024/01/31 11:24:19;;;;;;;;;52.25;41.00;;;;;9.74;100.00;100284.63;6183560;28;96346;-58
2024/01/31 11:27:23;;;;;;;;;45.60;37.20;;;;;9.74;100.00;100276.53;6174564;28;96380;-58
2024/01/31 11:30:26;;;;;;;;;45.60;36.60;;;;;9.83;100.00;100270.91;6141789;28;96735;-58
2024/01/31 11:33:30;;;;;;;;;44.60;37.60;;;;;9.83;100.00;100275.44;6145563;28;97636;-57
2024/01/31 11:36:33;;;;;;;;;45.20;37.00;;;;;9.85;100.00;100268.03;6164215;28;96407;-57
2024/01/31 11:39:38;;;;;;;;;47.00;38.00;;;;;9.86;100.00;100270.53;6166241;28;96410;-57
2024/01/31 11:42:41;;;;;;;;;45.00;36.20;;;;;9.87;100.00;100266.81;6163815;28;96418;-58
2024/01/31 11:45:47;;;;;;;;;44.80;36.20;;;;;9.83;100.00;100264.66;6157570;28;96927;-58
2024/01/31 11:48:51;;;;;;;;;42.40;35.00;;;;;9.91;100.00;100267.31;6168341;28;96331;-58
2024/01/31 11:51:55;;;;;;;;;46.60;37.60;;;;;9.92;100.00;100263.59;6160949;28;96316;-58
2024/01/31 11:54:59;;;;;;;;;44.80;36.80;;;;;9.91;100.00;100261.91;6160000;28;96657;-57
2024/01/31 11:58:02;;;;;;;;;47.00;38.80;;;;;9.85;100.00;100255.41;6147080;28;96420;-58
2024/01/31 12:01:06;;;;;;;;;44.00;35.80;;;;;9.90;100.00;100261.06;6160367;28;96372;-57
2024/01/31 12:04:09;;;;;;;;;47.75;39.75;;;;;9.90;100.00;100246.75;6161678;28;97460;-57
2024/01/31 12:07:12;;;;;;;;;47.00;39.00;;;;;9.95;100.00;100249.75;6160702;28;96707;-57
2024/01/31 12:10:19;;;;;;;;;48.00;39.00;;;;;9.80;100.00;100244.34;6162299;28;96447;-57
2024/01/31 12:13:22;;;;;;;;;47.80;39.00;;;;;9.71;100.00;100240.06;6161535;28;96643;-57
2024/01/31 12:16:26;;;;;;;;;48.20;39.40;;;;;9.75;100.00;100235.13;6160412;28;96373;-58
2024/01/31 12:19:29;;;;;;;;;53.00;42.00;;;;;9.70;100.00;100234.84;6146228;28;97556;-58
2024/01/31 12:22:33;;;;;;;;;49.80;40.20;;;;;9.51;100.00;100238.91;6176128;28;96249;-58
2024/01/31 12:25:37;;;;;;;;;49.25;39.25;;;;;9.68;100.00;100250.34;6160333;28;96500;-57
2024/01/31 12:28:41;;;;;;;;;48.00;39.20;;;;;9.65;100.00;100240.78;6187890;28;96502;-57
2024/01/31 12:31:45;;;;;;;;;48.00;39.00;;;;;9.58;100.00;100254.13;6187587;28;96333;-57
2024/01/31 12:34:48;;;;;;;;;50.20;41.20;;;;;9.57;100.00;100247.09;6169509;28;96390;-58
2024/01/31 12:37:51;;;;;;;;;50.25;40.50;;;;;9.67;100.00;100254.91;6187441;28;96352;-58
2024/01/31 12:40:56;;;;;;;;;49.00;40.00;;;;;9.71;100.00;100242.75;6187378;28;96378;-58
2024/01/31 12:43:59;;;;;;;;;51.60;40.60;;;;;9.73;100.00;100245.25;6163736;28;96395;-57
2024/01/31 12:47:05;;;;;;;;;54.80;43.00;;;;;9.65;100.00;100240.78;6161438;28;96935;-58
2024/01/31 12:50:08;;;;;;;;;51.80;41.60;;;;;9.64;100.00;100225.63;6162651;28;96964;-58
2024/01/31 12:53:12;;;;;;;;;54.50;42.50;;;;;9.56;100.00;100223.03;6153820;28;96377;-58
2024/01/31 12:56:16;;;;;;;;;52.40;42.00;;;;;9.47;100.00;100226.81;6158943;28;97070;-58
2024/01/31 12:59:19;;;;;;;;;48.60;40.20;;;;;9.58;100.00;100243.34;6162401;28;96512;-58
2024/01/31 13:02:27;;;;;;;;;52.50;42.25;;;;;9.61;100.00;100239.47;6159667;28;96498;-57
2024/01/31 13:05:30;;;;;;;;;50.00;40.00;;;;;9.67;100.00;100227.97;6161827;28;96407;-58
2024/01/31 13:08:35;;;;;;;;;48.20;39.20;;;;;9.71;100.00;100221.19;6161761;28;96726;-58
2024/01/31 13:11:40;;;;;;;;;52.00;42.00;;;;;9.72;100.00;100217.50;6138089;28;96283;-58
2024/01/31 13:14:43;;;;;;;;;47.50;39.00;;;;;9.72;100.00;100204.03;6162523;28;97051;-58
2024/01/31 13:17:47;;;;;;;;;47.40;40.00;;;;;9.77;100.00;100215.09;6158472;28;96359;-58
2024/01/31 13:20:50;;;;;;;;;49.60;39.60;;;;;9.82;100.00;100228.81;6162358;28;96603;-58
2024/01/31 13:23:55;;;;;;;;;48.60;39.00;;;;;9.70;100.00;100211.44;6144740;28;96419;-58
2024/01/31 13:27:00;;;;;;;;;47.00;39.00;;;;;9.81;100.00;100226.31;6177173;28;96470;-58
2024/01/31 13:30:04;;;;;;;;;49.00;40.00;;;;;9.77;100.00;100222.34;6185274;28;96444;-58
2024/01/31 13:33:07;;;;;;;;;47.20;38.40;;;;;9.86;100.00;100237.38;6170158;28;96327;-57
2024/01/31 13:36:11;;;;;;;;;47.00;37.60;;;;;9.84;100.00;100234.88;6160094;28;97569;-58
2024/01/31 13:39:15;;;;;;;;;47.00;39.00;;;;;9.84;100.00;100231.34;6161794;28;96715;-57
2024/01/31 13:42:20;;;;;;;;;49.00;39.75;;;;;9.72;100.00;100222.88;6161062;28;96617;-58
2024/01/31 13:45:23;;;;;;;;;48.60;39.60;;;;;9.53;100.00;100199.16;6160531;28;96391;-58
2024/01/31 13:48:26;;;;;;;;;50.75;41.00;;;;;9.46;100.00;100192.84;6173767;28;96388;-60
2024/01/31 13:51:29;;;;;;;;;45.00;38.00;;;;;9.50;100.00;100194.97;6178829;28;96259;-60
2024/01/31 13:54:32;;;;;;;;;48.60;38.60;;;;;9.59;100.00;100193.03;6181348;28;96371;-60
2024/01/31 13:57:37;;;;;;;;;48.60;38.60;;;;;9.61;100.00;100196.41;6179857;28;96879;-59
2024/01/31 14:00:41;;;;;;;;;49.80;40.40;;;;;9.70;100.00;100197.97;6159589;28;98573;-57
2024/01/31 14:03:44;;;;;;;;;49.00;39.00;;;;;9.76;100.00;100197.25;6180748;28;96265;-57
2024/01/31 14:06:48;;;;;;;;;52.20;40.00;;;;;9.72;100.00;100195.94;6180795;28;97242;-62
2024/01/31 14:09:51;;;;;;;;;53.40;42.00;;;;;9.82;100.00;100193.78;6172560;28;96384;-60
2024/01/31 14:12:56;;;;;;;;;52.40;42.00;;;;;9.76;100.00;100175.69;6163670;28;98661;-60
2024/01/31 14:15:59;;;;;;;;;51.00;41.00;;;;;9.83;100.00;100170.38;6179665;28;96564;-58